• Join FlightAware (Why Join?)
  • Login
  • US Flag 
05:12PM EST


 

Airport Tracker/Info


-or-


 

Live Flight TrackerFlight Track Log ✈ SNC8107 ✈ 21-Apr-2014 ✈ TJSJ / SJU - TIST / STT

Flight Track Log - Related Links

Times and Time Zones

All times are in EDT time to prevent confusion due to time zone crossing. See the SNC8107 flight status page for this flight to view local times or setup timezone preferences in your user account.

Time Position Orientation Groundspeed Altitude Reporting Facility
EDT Latitude Longitude Course Direction KTS MPH feet Rate Location/Type
09:47AM 18.4333 -65.9667 62° Northeast 110 127 1,100  Level San Juan Center
09:48AM 18.4500 -65.9333 62° Northeast 140 161 1,800 600 Climbing San Juan Center
09:49AM 18.4667 -65.9000 62° Northeast 140 161 2,400 600 Climbing San Juan Center
09:50AM 18.4833 -65.8667 62° Northeast 150 173 3,000 600 Climbing San Juan Center
09:51AM 18.5000 -65.8333 62° Northeast 150 173 3,600 600 Climbing San Juan Center
09:52AM 18.5167 -65.7833 71° East 150 173 4,300 660 Climbing San Juan Center
09:53AM 18.5167 -65.7333 90° East 150 173 5,000 300 Climbing San Juan Center
09:54AM 18.5167 -65.6833 90° East 180 207 5,000  Level San Juan Center
09:55AM 18.5167 -65.6333 90° East 190 219 5,000  Level San Juan Center
09:56AM 18.5000 -65.5833 109° East 190 219 5,000  Level San Juan Center
09:57AM 18.4667 -65.5333 125° Southeast 200 230 5,000 -240 Level San Juan Center
09:58AM 18.4500 -65.4833 109° East 200 230 4,600 -600 Descending San Juan Center
09:59AM 18.4167 -65.4333 125° Southeast 200 230 3,800 -900 Descending San Juan Center
10:00AM 18.3833 -65.3667 118° Southeast 200 230 2,800 -540 Descending San Juan Center
10:01AM 18.3667 -65.3333 118° Southeast 190 219 2,800  Level San Juan Center
10:02AM 18.3500 -65.2833 109° East 180 207 2,800 -60 Level San Juan Center
10:03AM 18.3167 -65.2333 125° Southeast 180 207 2,700 -60 Descending San Juan Center
10:04AM 18.3167 -65.1833 90° East 180 207 2,700  Level San Juan Center
10:05AM 18.3167 -65.1167 90° East 180 207 2,700 -300 Level San Juan Center
10:06AM 18.3333 -65.0833 62° Northeast 150 173 2,100 -720 Descending San Juan Center
10:07AM 18.3333 -65.0333 90° East 130 150 1,300 -840 Descending San Juan Center
10:08AM 18.3333 -65.0000 90° East 120 138 500 -840 Descending San Juan Center